Time;durP1;ratioP1;P1;durP2;ratioP2;P2;SDS_P1;SDS_P2;PMS_P1;PMS_P2;Temp;Humidity;BMP_temperature;BMP_pressure;BME280_temperature;BME280_humidity;BME280_pressure;Samples;Min_cycle;Max_cycle;Signal;HPM_P1;HPM_P2
2023/10/29 00:01:28;;;;;;;1.38;0.90;;;;;;;17.98;60.39;99038.63;5045001;28;20099;-44
2023/10/29 00:03:55;;;;;;;0.80;0.77;;;;;;;17.97;60.17;99042.31;5043882;28;20037;-44
2023/10/29 00:06:22;;;;;;;2.70;1.02;;;;;;;17.97;60.19;99027.06;5044059;28;20057;-44
2023/10/29 00:08:49;;;;;;;1.38;0.98;;;;;;;17.97;60.00;99034.28;5047141;28;20463;-46
2023/10/29 00:11:16;;;;;;;2.28;1.20;;;;;;;17.97;60.21;99026.25;5042575;28;20510;-46
2023/10/29 00:13:43;;;;;;;1.17;0.98;;;;;;;17.97;60.09;99029.75;5037091;28;20497;-47
2023/10/29 00:16:11;;;;;;;3.58;1.33;;;;;;;17.97;60.02;99023.56;5040337;28;20053;-44
2023/10/29 00:18:38;;;;;;;1.55;1.10;;;;;;;17.97;59.86;99019.03;5041829;28;20061;-43
2023/10/29 00:21:05;;;;;;;2.88;1.30;;;;;;;17.98;60.24;99019.84;5040566;28;20441;-45
2023/10/29 00:23:32;;;;;;;2.45;1.30;;;;;;;17.98;59.99;99014.50;5042688;28;20084;-44
2023/10/29 00:25:59;;;;;;;3.90;1.48;;;;;;;17.97;60.17;99015.53;5042401;28;20084;-46
2023/10/29 00:28:26;;;;;;;2.80;1.25;;;;;;;17.97;59.85;99008.31;5041503;28;20161;-45
2023/10/29 00:30:54;;;;;;;3.03;1.85;;;;;;;17.97;59.74;99008.31;5042400;28;20101;-47
2023/10/29 00:33:22;;;;;;;2.83;1.30;;;;;;;17.98;59.88;99003.75;5044262;28;20428;-44
2023/10/29 00:35:49;;;;;;;1.65;1.20;;;;;;;17.96;60.12;98990.53;5040589;28;20517;-45
2023/10/29 00:38:16;;;;;;;2.33;1.35;;;;;;;17.98;59.99;98985.81;5044593;28;20473;-47
2023/10/29 00:40:43;;;;;;;1.90;1.33;;;;;;;17.98;60.02;98993.88;5047620;28;20061;-48
2023/10/29 00:43:14;;;;;;;1.85;1.17;;;;;;;17.98;60.00;98979.63;5038872;28;20056;-46
2023/10/29 00:45:42;;;;;;;1.98;0.95;;;;;;;17.98;60.43;98985.00;5042446;28;20049;-46
2023/10/29 00:48:11;;;;;;;2.53;1.25;;;;;;;17.99;60.24;98978.59;5042803;28;20049;-44
2023/10/29 00:50:39;;;;;;;3.42;1.20;;;;;;;17.99;60.03;98981.28;5036913;28;20065;-44
2023/10/29 00:53:06;;;;;;;1.75;1.10;;;;;;;17.99;59.82;98970.56;5039053;28;20049;-48
2023/10/29 00:55:33;;;;;;;2.20;1.15;;;;;;;17.98;60.06;98977.78;5040656;28;20095;-46
2023/10/29 00:58:00;;;;;;;1.20;1.10;;;;;;;17.98;60.05;98956.34;5040089;28;20068;-47
2023/10/29 01:00:26;;;;;;;3.03;1.33;;;;;;;17.99;59.52;98959.84;5044768;28;20455;-46
2023/10/29 01:02:53;;;;;;;2.15;1.17;;;;;;;17.98;59.79;98964.38;5046470;28;20401;-46
2023/10/29 01:05:21;;;;;;;2.45;1.27;;;;;;;17.99;59.88;98959.84;5041532;28;20045;-47
2023/10/29 01:07:48;;;;;;;1.65;1.23;;;;;;;17.99;59.72;98957.16;5041115;28;20069;-47
2023/10/29 01:10:15;;;;;;;1.08;0.90;;;;;;;17.99;59.92;98954.47;5040232;28;20429;-48
2023/10/29 01:12:45;;;;;;;1.70;1.02;;;;;;;17.98;59.97;98953.66;5041490;28;20101;-44
2023/10/29 01:15:11;;;;;;;3.50;1.90;;;;;;;17.98;59.90;98940.25;5046434;28;20068;-46
2023/10/29 01:17:38;;;;;;;1.60;1.13;;;;;;;17.98;59.58;98942.13;5036959;28;20053;-45
2023/10/29 01:20:05;;;;;;;1.80;1.27;;;;;;;17.98;59.85;98942.94;5039023;28;20058;-44
2023/10/29 01:22:33;;;;;;;3.03;1.15;;;;;;;18.00;59.90;98937.38;5038813;28;20053;-48
2023/10/29 01:25:05;;;;;;;1.70;0.93;;;;;;;17.98;59.57;98929.53;5043806;28;20479;-48
2023/10/29 01:27:33;;;;;;;2.10;0.90;;;;;;;17.99;59.65;98933.03;5038583;28;20412;-47
2023/10/29 01:29:59;;;;;;;3.72;1.30;;;;;;;17.98;59.44;98928.72;5038610;28;20053;-48
2023/10/29 01:32:26;;;;;;;2.03;1.10;;;;;;;17.99;59.70;98916.94;5039483;28;20045;-47
2023/10/29 01:34:52;;;;;;;3.47;0.82;;;;;;;17.98;59.73;98916.13;5037752;28;20045;-46
2023/10/29 01:37:19;;;;;;;2.28;1.10;;;;;;;17.98;59.95;98921.50;5035532;28;20057;-46
2023/10/29 01:39:46;;;;;;;1.77;0.90;;;;;;;17.98;59.60;98920.66;5043975;28;20099;-46
2023/10/29 01:42:12;;;;;;;3.50;0.90;;;;;;;17.99;59.97;98916.94;5038456;28;20400;-45
2023/10/29 01:44:39;;;;;;;2.00;0.80;;;;;;;17.98;59.82;98904.59;5040015;28;20131;-45
2023/10/29 01:47:05;;;;;;;1.48;0.88;;;;;;;17.99;60.10;98903.56;5042992;28;20136;-43
2023/10/29 01:49:33;;;;;;;1.70;1.00;;;;;;;17.99;59.43;98899.00;5038879;28;20049;-47
2023/10/29 01:51:59;;;;;;;1.25;0.90;;;;;;;18.00;59.70;98897.97;5041749;28;20056;-45
2023/10/29 01:54:26;;;;;;;1.88;0.93;;;;;;;18.00;59.87;98907.88;5039353;28;20049;-45
2023/10/29 01:56:53;;;;;;;1.17;0.88;;;;;;;18.01;60.15;98898.84;5039234;28;20111;-45
2023/10/29 01:59:20;;;;;;;1.33;0.90;;;;;;;17.99;59.68;98885.63;5037923;28;20092;-45
2023/10/29 02:01:46;;;;;;;1.45;1.00;;;;;;;18.00;59.61;98879.22;5040847;28;20053;-47
2023/10/29 02:04:13;;;;;;;1.20;0.77;;;;;;;18.00;59.71;98883.75;5040631;28;20449;-47
2023/10/29 02:06:39;;;;;;;1.17;0.63;;;;;;;17.99;59.41;98890.16;5042596;28;20047;-43
2023/10/29 02:09:10;;;;;;;1.98;0.90;;;;;;;17.99;59.70;98893.66;5044682;28;20060;-44
2023/10/29 02:11:37;;;;;;;2.33;0.80;;;;;;;17.99;59.40;98895.50;5045117;28;20114;-45
2023/10/29 02:14:05;;;;;;;1.73;1.05;;;;;;;18.00;59.90;98889.13;5044249;28;20050;-46
2023/10/29 02:16:31;;;;;;;1.20;0.80;;;;;;;17.99;59.64;98890.97;5041869;28;20453;-44
2023/10/29 02:18:58;;;;;;;3.08;1.00;;;;;;;18.00;59.86;98897.16;5038562;28;20049;-45
2023/10/29 02:21:25;;;;;;;1.23;0.68;;;;;;;17.99;59.68;98885.63;5041982;28;20057;-48
2023/10/29 02:23:52;;;;;;;2.60;0.88;;;;;;;18.00;59.68;98889.13;5036455;28;20045;-46
2023/10/29 02:26:19;;;;;;;4.53;1.00;;;;;;;18.01;59.59;98898.84;5044605;28;20052;-45
2023/10/29 02:28:46;;;;;;;3.45;1.00;;;;;;;18.00;59.92;98881.06;5043913;28;20396;-46
2023/10/29 02:31:17;;;;;;;0.80;0.70;;;;;;;17.99;59.67;98888.28;5045967;28;20044;-47
2023/10/29 02:33:44;;;;;;;1.20;0.82;;;;;;;18.01;59.44;98912.25;5039597;28;20334;-44
2023/10/29 02:36:10;;;;;;;1.83;1.20;;;;;;;18.01;59.29;98925.63;5040426;28;20068;-48
2023/10/29 02:38:37;;;;;;;0.80;0.60;;;;;;;18.01;59.70;98933.69;5045200;28;20049;-47
2023/10/29 02:41:05;;;;;;;0.93;0.68;;;;;;;18.02;59.89;98948.72;5045474;28;20087;-45
2023/10/29 02:43:31;;;;;;;1.55;0.70;;;;;;;18.03;59.18;99000.50;5042778;28;20117;-44
2023/10/29 02:45:58;;;;;;;1.52;1.27;;;;;;;18.02;59.61;98958.63;5046620;28;20566;-42
2023/10/29 02:48:25;;;;;;;1.17;0.68;;;;;;;17.98;59.73;98950.97;5045671;28;20144;-43
2023/10/29 02:50:53;;;;;;;1.08;0.70;;;;;;;17.97;59.55;98940.47;5041898;28;20079;-44
2023/10/29 02:53:20;;;;;;;1.48;0.82;;;;;;;17.94;59.83;98936.31;5047978;28;20064;-44
2023/10/29 02:55:47;;;;;;;1.23;0.60;;;;;;;17.91;59.08;98939.41;5043225;28;20049;-44
2023/10/29 02:58:14;;;;;;;0.98;0.63;;;;;;;17.89;59.63;98929.88;5045837;28;20433;-45
2023/10/29 03:00:40;;;;;;;2.40;0.70;;;;;;;17.86;59.45;98928.44;5041096;28;20106;-47
2023/10/29 03:03:07;;;;;;;1.13;0.80;;;;;;;17.84;59.41;98932.34;5039856;28;20445;-43
2023/10/29 03:05:34;;;;;;;1.08;0.90;;;;;;;17.82;59.76;98932.56;5039319;28;20048;-43
2023/10/29 03:08:19;;;;;;;1.75;1.10;;;;;;;17.80;59.77;98950.66;5041365;28;20136;-45
2023/10/29 03:10:49;;;;;;;1.40;0.70;;;;;;;17.79;59.56;98897.28;5042362;28;20049;-43
2023/10/29 03:13:16;;;;;;;1.70;0.70;;;;;;;17.76;59.56;98907.38;5050330;28;20047;-43
2023/10/29 03:15:43;;;;;;;1.50;0.70;;;;;;;17.74;59.42;98904.06;5051301;28;20128;-44
2023/10/29 03:18:11;;;;;;;1.08;0.70;;;;;;;17.73;59.85;98906.94;5046273;28;20441;-43
2023/10/29 03:20:38;;;;;;;1.05;0.70;;;;;;;17.72;59.67;98911.44;5044112;28;20056;-44
2023/10/29 03:23:05;;;;;;;2.47;0.93;;;;;;;17.72;60.00;98918.66;5042614;28;20162;-43
2023/10/29 03:25:32;;;;;;;1.60;0.68;;;;;;;17.70;59.82;98902.78;5041450;28;20341;-42
2023/10/29 03:27:58;;;;;;;1.10;0.47;;;;;;;17.70;59.75;98900.09;5040953;28;20132;-43
2023/10/29 03:30:25;;;;;;;0.90;0.73;;;;;;;17.69;59.68;98913.72;5044455;28;20110;-47
2023/10/29 03:32:51;;;;;;;1.30;0.60;;;;;;;17.69;59.96;98908.34;5043008;28;20277;-48
2023/10/29 03:35:18;;;;;;;1.17;0.60;;;;;;;17.69;59.78;98898.47;5044003;28;20139;-46
2023/10/29 03:37:45;;;;;;;2.17;0.70;;;;;;;17.69;59.65;98908.34;5043217;28;20129;-46
2023/10/29 03:40:12;;;;;;;0.95;0.50;;;;;;;17.69;59.59;98901.13;5045407;28;20076;-44
2023/10/29 03:42:38;;;;;;;1.13;0.70;;;;;;;17.70;59.92;98915.34;5042095;28;20110;-43
2023/10/29 03:45:05;;;;;;;0.80;0.50;;;;;;;17.68;59.84;98904.81;5043595;28;20541;-43
2023/10/29 03:47:32;;;;;;;0.75;0.60;;;;;;;17.70;59.72;98910.81;5049386;28;20049;-45
2023/10/29 03:49:59;;;;;;;1.50;0.60;;;;;;;17.70;59.74;98910.81;5043652;28;20054;-44
2023/10/29 03:52:25;;;;;;;1.58;0.70;;;;;;;17.70;60.03;98905.47;5041631;28;20045;-44
2023/10/29 03:54:52;;;;;;;0.73;0.60;;;;;;;17.71;59.92;98912.47;5044466;28;20088;-44
2023/10/29 03:57:18;;;;;;;1.17;0.63;;;;;;;17.71;60.02;98904.44;5041335;28;20045;-43
2023/10/29 03:59:45;;;;;;;1.42;0.70;;;;;;;17.71;60.00;98915.16;5046070;28;20422;-43
2023/10/29 04:02:12;;;;;;;1.33;0.68;;;;;;;17.72;59.94;98910.63;5044812;28;20053;-43
2023/10/29 04:04:38;;;;;;;0.82;0.68;;;;;;;17.72;59.74;98915.97;5043691;28;20077;-43
2023/10/29 04:07:07;;;;;;;0.93;0.47;;;;;;;17.72;59.90;98922.16;5041883;28;20376;-46
2023/10/29 04:09:34;;;;;;;1.23;0.60;;;;;;;17.73;59.68;98915.78;5036682;28;20056;-44
2023/10/29 04:12:01;;;;;;;2.55;0.68;;;;;;;17.72;59.65;98919.47;5045259;28;20465;-44
2023/10/29 04:14:27;;;;;;;1.33;0.70;;;;;;;17.73;59.65;98915.78;5039465;28;20137;-43
2023/10/29 04:16:54;;;;;;;0.77;0.47;;;;;;;17.73;59.74;98923.00;5041790;28;20052;-42
2023/10/29 04:19:20;;;;;;;3.75;0.60;;;;;;;17.72;59.57;98911.44;5049261;28;20110;-44
2023/10/29 04:21:47;;;;;;;1.35;0.70;;;;;;;17.73;59.69;98912.28;5047528;28;20098;-44
2023/10/29 04:24:14;;;;;;;2.58;0.55;;;;;;;17.73;59.33;98917.66;5043249;28;20161;-45
2023/10/29 04:26:40;;;;;;;3.05;0.80;;;;;;;17.73;59.42;98910.44;5041714;28;20098;-43
2023/10/29 04:29:07;;;;;;;3.25;0.75;;;;;;;17.74;59.93;98924.66;5038733;28;20490;-44
2023/10/29 04:31:33;;;;;;;0.80;0.70;;;;;;;17.74;59.35;98927.34;5040946;28;20049;-45
2023/10/29 04:34:00;;;;;;;2.05;0.90;;;;;;;17.73;59.32;98929.19;5039537;28;20061;-44
2023/10/29 04:36:27;;;;;;;2.70;0.77;;;;;;;17.73;59.57;98929.19;5040904;28;20052;-43
2023/10/29 04:38:53;;;;;;;1.92;0.90;;;;;;;17.74;59.28;98932.69;5043665;28;20099;-45
2023/10/29 04:41:20;;;;;;;1.05;0.60;;;;;;;17.74;59.33;98917.47;5044606;28;20057;-46
2023/10/29 04:43:47;;;;;;;1.75;0.70;;;;;;;17.75;59.36;98921.78;5043603;28;20041;-46
2023/10/29 04:46:14;;;;;;;2.15;0.60;;;;;;;17.75;59.19;98931.69;5039539;28;20096;-44
2023/10/29 04:48:41;;;;;;;0.90;0.60;;;;;;;17.75;59.25;98927.16;5042345;28;20072;-44
2023/10/29 04:51:07;;;;;;;1.50;0.70;;;;;;;17.74;59.40;98933.53;5043250;28;20049;-44
2023/10/29 04:53:34;;;;;;;1.67;0.85;;;;;;;17.75;59.06;98937.06;5045199;28;20064;-45
2023/10/29 04:56:02;;;;;;;1.67;0.60;;;;;;;17.75;59.41;98945.09;5040198;28;20041;-46
2023/10/29 04:58:31;;;;;;;2.67;1.02;;;;;;;17.74;58.83;98940.72;5039307;28;20053;-44
2023/10/29 05:00:58;;;;;;;1.52;0.70;;;;;;;17.73;58.80;98937.22;5037052;28;20080;-45
2023/10/29 05:03:27;;;;;;;1.98;0.60;;;;;;;17.74;59.06;98949.63;5039248;28;20092;-44
2023/10/29 05:05:55;;;;;;;1.85;0.60;;;;;;;17.74;59.13;98959.50;5038683;28;20041;-45
2023/10/29 05:08:22;;;;;;;2.42;0.68;;;;;;;17.74;59.36;98963.03;5040923;28;20053;-43
2023/10/29 05:10:49;;;;;;;1.40;0.55;;;;;;;17.74;58.79;98964.84;5043522;28;20110;-48
2023/10/29 05:13:15;;;;;;;2.75;1.40;;;;;;;17.76;58.54;98970.84;5045403;28;20077;-43
2023/10/29 05:15:42;;;;;;;1.75;0.75;;;;;;;17.73;58.40;98964.03;5037116;28;20045;-44
2023/10/29 05:18:09;;;;;;;2.03;0.80;;;;;;;17.73;58.82;98961.34;5044103;28;20472;-45
2023/10/29 05:20:37;;;;;;;2.72;1.02;;;;;;;17.73;58.74;98961.34;5040254;28;20055;-44
2023/10/29 05:23:04;;;;;;;2.72;0.73;;;;;;;17.72;58.67;98965.03;5039468;28;20472;-45
2023/10/29 05:25:31;;;;;;;0.85;0.43;;;;;;;17.73;58.34;98960.53;5044130;28;20111;-46
2023/10/29 05:27:58;;;;;;;2.83;0.70;;;;;;;17.73;58.15;98969.38;5046905;28;20049;-45
2023/10/29 05:30:24;;;;;;;1.17;0.70;;;;;;;17.73;58.65;98971.25;5042851;28;20509;-46
2023/10/29 05:32:51;;;;;;;0.47;0.40;;;;;;;17.72;58.20;98970.38;5037934;28;20123;-45
2023/10/29 05:35:18;;;;;;;3.53;0.70;;;;;;;17.72;58.63;98974.91;5041268;28;20056;-47
2023/10/29 05:37:45;;;;;;;1.73;0.57;;;;;;;17.73;58.65;98963.19;5035266;28;20057;-47
2023/10/29 05:40:11;;;;;;;1.00;0.70;;;;;;;17.73;58.47;98977.41;5039269;28;20057;-45
2023/10/29 05:42:38;;;;;;;1.05;0.60;;;;;;;17.73;58.37;98972.06;5039035;28;20053;-45
2023/10/29 05:45:06;;;;;;;1.27;0.93;;;;;;;17.73;58.40;98982.78;5043277;28;20053;-49
2023/10/29 05:47:34;;;;;;;1.02;0.50;;;;;;;17.73;58.24;98977.41;5044342;28;20042;-47
2023/10/29 05:50:01;;;;;;;1.75;0.60;;;;;;;17.73;58.45;98988.13;5041719;28;20085;-45
2023/10/29 05:52:27;;;;;;;2.55;0.60;;;;;;;17.71;58.21;98995.53;5038168;28;20083;-44
2023/10/29 05:54:55;;;;;;;2.72;0.60;;;;;;;17.72;58.47;98983.78;5038211;28;20420;-44
2023/10/29 05:57:22;;;;;;;3.40;0.98;;;;;;;17.72;58.18;98986.47;5040613;28;20049;-44
2023/10/29 05:59:49;;;;;;;1.63;0.60;;;;;;;17.72;58.09;99004.38;5047408;28;20052;-47
2023/10/29 06:02:16;;;;;;;3.72;1.15;;;;;;;17.73;58.44;99014.09;5044291;28;20111;-44
2023/10/29 06:04:42;;;;;;;2.92;0.80;;;;;;;17.71;58.50;99021.50;5041016;28;20593;-45
2023/10/29 06:07:09;;;;;;;3.80;0.95;;;;;;;17.71;58.54;99030.38;5039748;28;20120;-45
2023/10/29 06:09:35;;;;;;;2.30;0.52;;;;;;;17.71;58.11;99022.31;5043724;28;20137;-48
2023/10/29 06:12:02;;;;;;;1.23;0.70;;;;;;;17.71;58.28;99025.00;5042646;28;20342;-46
2023/10/29 06:14:30;;;;;;;2.08;0.70;;;;;;;17.71;57.95;99035.72;5042644;28;20418;-45
2023/10/29 06:16:57;;;;;;;2.15;0.75;;;;;;;17.70;57.82;99023.34;5042689;28;20372;-44
2023/10/29 06:19:41;;;;;;;1.70;0.68;;;;;;;17.70;58.06;99039.44;5046839;28;20076;-45
2023/10/29 06:22:08;;;;;;;2.03;0.60;;;;;;;17.69;57.89;99035.09;5049766;28;20479;-44
2023/10/29 06:24:35;;;;;;;2.13;0.80;;;;;;;17.69;57.85;99036.97;5043966;28;20049;-46
2023/10/29 06:27:02;;;;;;;3.10;0.65;;;;;;;17.67;58.07;99061.25;5046172;28;20473;-46
2023/10/29 06:29:29;;;;;;;2.65;0.93;;;;;;;17.67;57.99;99055.88;5046992;28;20106;-44
2023/10/29 06:31:56;;;;;;;2.13;0.70;;;;;;;17.66;58.02;99067.63;5049042;28;20049;-49
2023/10/29 06:34:22;;;;;;;3.20;0.75;;;;;;;17.66;58.17;99082.88;5046140;28;20111;-45
2023/10/29 06:36:49;;;;;;;3.55;1.08;;;;;;;17.66;58.00;99081.03;5047079;28;20425;-46
2023/10/29 06:39:16;;;;;;;2.60;0.68;;;;;;;17.65;57.91;99073.19;5043710;28;20636;-47
2023/10/29 06:41:43;;;;;;;1.45;0.60;;;;;;;17.65;57.97;99081.25;5041562;28;20468;-44
2023/10/29 06:44:10;;;;;;;4.25;0.95;;;;;;;17.65;57.90;99081.25;5043285;28;20049;-46
2023/10/29 06:46:37;;;;;;;2.58;0.50;;;;;;;17.64;58.09;99076.88;5045711;28;20110;-44
2023/10/29 06:49:03;;;;;;;3.85;0.70;;;;;;;17.63;58.05;99093.97;5043428;28;20462;-43
2023/10/29 06:51:30;;;;;;;4.15;0.60;;;;;;;17.61;57.85;99088.84;5042156;28;20044;-43
2023/10/29 06:53:56;;;;;;;3.20;0.90;;;;;;;17.62;58.06;99097.69;5045604;28;20388;-43
2023/10/29 06:56:23;;;;;;;2.72;0.90;;;;;;;17.61;58.17;99098.69;5041774;28;20403;-45
2023/10/29 06:58:50;;;;;;;5.28;0.88;;;;;;;17.60;58.00;99127.34;5045629;28;20049;-46
2023/10/29 07:01:16;;;;;;;2.70;0.73;;;;;;;17.62;57.87;99116.44;5042092;28;20061;-48
2023/10/29 07:03:43;;;;;;;3.70;0.90;;;;;;;17.60;58.07;99126.50;5041532;28;20045;-43
2023/10/29 07:06:11;;;;;;;2.22;1.00;;;;;;;17.60;58.05;99131.88;5037575;28;20049;-44
2023/10/29 07:08:38;;;;;;;2.83;0.80;;;;;;;17.59;57.58;99133.72;5041797;28;20484;-43
2023/10/29 07:11:05;;;;;;;1.75;0.57;;;;;;;17.60;57.98;99142.59;5040588;28;20068;-44
2023/10/29 07:13:32;;;;;;;1.48;0.60;;;;;;;17.60;57.87;99148.78;5041462;28;20056;-44
2023/10/29 07:16:00;;;;;;;3.25;0.85;;;;;;;17.60;58.00;99158.66;5041495;28;20049;-43
2023/10/29 07:18:27;;;;;;;3.10;0.80;;;;;;;17.59;57.58;99173.09;5038725;28;20153;-44
2023/10/29 07:20:55;;;;;;;4.70;0.77;;;;;;;17.60;57.53;99174.72;5038927;28;20052;-43
2023/10/29 07:23:22;;;;;;;1.67;0.65;;;;;;;17.59;57.79;99194.50;5039586;28;20045;-42
2023/10/29 07:25:50;;;;;;;1.70;0.80;;;;;;;17.59;57.43;99205.22;5046449;28;20055;-47
2023/10/29 07:28:17;;;;;;;1.95;0.70;;;;;;;17.58;57.66;99196.38;5046305;28;20049;-46
2023/10/29 07:30:44;;;;;;;2.42;1.00;;;;;;;17.58;57.71;99196.38;5046278;28;20131;-43
2023/10/29 07:33:11;;;;;;;2.88;0.80;;;;;;;17.58;57.90;99199.03;5042006;28;20461;-44
2023/10/29 07:35:39;;;;;;;3.40;0.80;;;;;;;17.59;57.93;99191.84;5040588;28;20084;-43
2023/10/29 07:38:07;;;;;;;3.35;0.90;;;;;;;17.59;57.80;99192.66;5042587;28;20053;-43
2023/10/29 07:40:35;;;;;;;3.33;1.20;;;;;;;17.60;57.55;99204.19;5042038;28;20061;-47
2023/10/29 07:43:03;;;;;;;4.40;0.70;;;;;;;17.58;57.81;99196.38;5043683;28;20053;-44
2023/10/29 07:45:31;;;;;;;5.38;1.20;;;;;;;17.59;57.63;99206.06;5042138;28;20376;-44
2023/10/29 07:47:58;;;;;;;2.65;0.70;;;;;;;17.59;57.63;99210.59;5040805;28;20052;-48
2023/10/29 07:50:25;;;;;;;4.10;1.27;;;;;;;17.58;57.36;99215.13;5038356;28;20049;-45
2023/10/29 07:52:53;;;;;;;1.13;0.70;;;;;;;17.62;57.46;99213.72;5038049;28;20052;-44
2023/10/29 07:55:19;;;;;;;2.50;0.82;;;;;;;17.70;57.56;99221.63;5042026;28;20098;-45
2023/10/29 07:57:46;;;;;;;4.05;0.75;;;;;;;17.81;57.37;99216.81;5046916;28;20132;-48
2023/10/29 08:00:13;;;;;;;1.48;0.60;;;;;;;17.93;57.03;99209.91;5047170;28;20045;-45
2023/10/29 08:02:41;;;;;;;2.30;0.60;;;;;;;18.04;57.05;99208.56;5039768;28;20068;-46
2023/10/29 08:05:10;;;;;;;3.40;0.82;;;;;;;18.15;56.55;99222.28;5043435;28;20057;-44
2023/10/29 08:07:38;;;;;;;3.63;0.80;;;;;;;18.25;56.63;99221.91;5037175;28;20061;-47
2023/10/29 08:10:05;;;;;;;3.03;1.08;;;;;;;18.34;56.32;99236.88;5042167;28;20060;-47
2023/10/29 08:12:34;;;;;;;6.25;0.90;;;;;;;18.43;56.11;99269.75;5044847;28;20103;-44
2023/10/29 08:15:02;;;;;;;2.33;0.90;;;;;;;18.48;55.60;99260.06;5041623;28;20053;-45
2023/10/29 08:17:29;;;;;;;1.92;0.80;;;;;;;18.52;56.23;99260.50;5043053;28;20041;-45
2023/10/29 08:19:56;;;;;;;3.58;1.00;;;;;;;18.55;55.88;99261.97;5041814;28;20061;-48
2023/10/29 08:22:22;;;;;;;5.22;1.38;;;;;;;18.56;55.59;99258.28;5040344;28;20042;-45
2023/10/29 08:24:50;;;;;;;3.35;0.80;;;;;;;18.56;55.69;99267.13;5040206;28;20627;-46
2023/10/29 08:27:17;;;;;;;3.92;0.80;;;;;;;18.58;55.54;99265.09;5043466;28;20156;-44
2023/10/29 08:29:45;;;;;;;4.78;1.38;;;;;;;18.57;55.16;99284.91;5042889;28;20804;-46
2023/10/29 08:32:12;;;;;;;3.45;0.98;;;;;;;18.58;55.16;99281.22;5047516;28;20057;-45
2023/10/29 08:34:39;;;;;;;4.60;1.25;;;;;;;18.58;55.12;99273.16;5047418;28;20056;-46
2023/10/29 08:37:06;;;;;;;4.70;1.20;;;;;;;18.57;55.19;99276.84;5041736;28;20041;-45
2023/10/29 08:39:33;;;;;;;4.00;1.00;;;;;;;18.56;54.67;99277.88;5039933;28;20044;-44
2023/10/29 08:42:02;;;;;;;2.92;1.00;;;;;;;18.55;55.05;99286.13;5041862;28;20053;-45
2023/10/29 08:44:29;;;;;;;2.85;1.00;;;;;;;18.54;54.67;99289.84;5043278;28;20048;-45
2023/10/29 08:46:56;;;;;;;2.72;1.10;;;;;;;18.53;54.68;99286.31;5042325;28;20099;-47
2023/10/29 08:49:23;;;;;;;5.78;0.95;;;;;;;18.53;54.83;99297.03;5043117;28;20084;-44
2023/10/29 08:51:50;;;;;;;2.35;1.00;;;;;;;18.53;54.88;99302.41;5041240;28;20048;-46
2023/10/29 08:54:17;;;;;;;4.20;1.10;;;;;;;18.54;54.42;99306.78;5039234;28;20049;-46
2023/10/29 08:56:44;;;;;;;3.10;0.73;;;;;;;18.54;54.56;99319.38;5039830;28;20052;-45
2023/10/29 08:59:15;;;;;;;6.97;1.40;;;;;;;18.55;54.84;99302.22;5037458;28;20045;-47
2023/10/29 09:01:41;;;;;;;5.13;1.25;;;;;;;18.55;54.86;99321.84;5041937;28;20141;-45
2023/10/29 09:04:10;;;;;;;4.15;1.20;;;;;;;18.55;nan;99329.88;5040228;28;20136;-47
2023/10/29 09:06:37;;;;;;;3.28;1.10;;;;;;;18.56;54.81;99331.53;5043744;28;20056;-47
2023/10/29 09:09:04;;;;;;;8.10;1.30;;;;;;;18.57;54.86;99335.06;5036023;28;20068;-46
2023/10/29 09:11:31;;;;;;;5.32;1.42;;;;;;;18.57;54.69;99327.81;5042364;28;20044;-49
2023/10/29 09:13:58;;;;;;;3.55;1.52;;;;;;;18.58;54.80;99344.78;5043039;28;20063;-46
2023/10/29 09:16:25;;;;;;;4.18;1.13;;;;;;;18.60;54.77;99337.34;5040395;28;20102;-45
2023/10/29 09:18:52;;;;;;;6.20;1.55;;;;;;;18.59;54.74;99349.13;5043673;28;20456;-43
2023/10/29 09:21:19;;;;;;;4.60;1.00;;;;;;;18.58;54.39;99353.66;5042067;28;20108;-44
2023/10/29 09:23:46;;;;;;;4.20;1.20;;;;;;;18.58;54.40;99364.38;5037017;28;20464;-43
2023/10/29 09:26:12;;;;;;;4.70;1.30;;;;;;;18.58;54.33;99356.34;5040856;28;20056;-47
2023/10/29 09:28:39;;;;;;;7.10;0.90;;;;;;;18.57;54.02;99365.38;5039690;28;20045;-45
2023/10/29 09:31:05;;;;;;;4.65;1.10;;;;;;;18.57;54.36;99354.66;5038267;28;20551;-44
2023/10/29 09:33:32;;;;;;;4.60;1.60;;;;;;;18.56;54.73;99362.91;5043734;28;20078;-44
2023/10/29 09:36:00;;;;;;;4.25;1.20;;;;;;;18.56;54.81;99373.66;5037775;28;20053;-47
2023/10/29 09:38:27;;;;;;;5.45;1.30;;;;;;;18.57;54.59;99365.38;5042376;28;20340;-47
2023/10/29 09:40:53;;;;;;;4.95;1.30;;;;;;;18.58;53.96;99377.81;5044501;28;20095;-44
2023/10/29 09:43:26;;;;;;;6.72;1.73;;;;;;;18.58;54.14;99376.97;5041192;28;20049;-45
2023/10/29 09:45:54;;;;;;;6.22;1.30;;;;;;;18.59;54.09;99384.81;5038749;28;20350;-44
2023/10/29 09:48:21;;;;;;;6.32;1.38;;;;;;;18.58;53.85;99371.63;5042386;28;20041;-47
2023/10/29 09:50:48;;;;;;;3.83;1.20;;;;;;;18.56;53.60;99369.09;5036630;28;20041;-48
2023/10/29 09:53:15;;;;;;;4.55;1.30;;;;;;;18.57;53.79;99388.72;5039625;28;20057;-46
2023/10/29 09:55:42;;;;;;;4.65;1.40;;;;;;;18.57;54.13;99380.66;5040225;28;20064;-47
2023/10/29 09:58:09;;;;;;;5.18;1.67;;;;;;;18.55;54.07;99380.88;5039052;28;20325;-43
2023/10/29 10:00:36;;;;;;;6.88;1.48;;;;;;;18.55;53.80;99378.19;5039101;28;20412;-45
2023/10/29 10:03:03;;;;;;;8.88;1.67;;;;;;;18.54;53.74;99384.59;5041635;28;20129;-44
2023/10/29 10:05:30;;;;;;;5.80;1.40;;;;;;;18.50;54.11;99375.25;5041884;28;20052;-46
2023/10/29 10:07:57;;;;;;;5.50;1.10;;;;;;;18.48;53.82;99366.56;5041656;28;20037;-44
2023/10/29 10:10:39;;;;;;;7.53;1.90;;;;;;;18.46;54.10;99373.97;5045267;28;20159;-45
2023/10/29 10:13:06;;;;;;;7.35;1.70;;;;;;;18.46;53.99;99382.84;5042765;28;20468;-45
2023/10/29 10:15:33;;;;;;;3.70;1.25;;;;;;;18.45;53.87;99366.94;5038779;28;20045;-45
2023/10/29 10:18:04;;;;;;;7.10;2.05;;;;;;;18.44;53.95;99366.09;5038886;28;20111;-44
2023/10/29 10:20:32;;;;;;;5.97;1.30;;;;;;;18.46;54.01;99369.44;5038448;28;20092;-45
2023/10/29 10:23:01;;;;;;;12.27;2.10;;;;;;;18.46;53.92;99379.34;5038127;28;20104;-44
2023/10/29 10:25:29;;;;;;;8.70;1.52;;;;;;;18.47;54.05;99363.03;5037527;28;20072;-47
2023/10/29 10:27:57;;;;;;;6.75;1.70;;;;;;;18.50;54.35;99367.22;5039974;28;20096;-45
2023/10/29 10:30:29;;;;;;;7.50;1.70;;;;;;;18.52;54.26;99358.97;5045410;28;20053;-43
2023/10/29 10:33:14;;;;;;;5.97;1.98;;;;;;;18.54;54.23;99362.28;5042296;28;20092;-43
2023/10/29 10:35:46;;;;;;;6.88;1.98;;;;;;;18.57;54.25;99378.81;5039425;28;20045;-45
2023/10/29 10:38:14;;;;;;;9.48;2.15;;;;;;;18.59;54.42;99387.50;5041099;28;20355;-45
2023/10/29 10:40:42;;;;;;;6.32;1.83;;;;;;;18.62;54.32;99397.03;5039492;28;20052;-45
2023/10/29 10:43:08;;;;;;;7.00;1.70;;;;;;;18.63;53.70;99386.09;5043458;28;20433;-45
2023/10/29 10:45:36;;;;;;;5.45;1.65;;;;;;;18.65;53.97;99372.47;5047738;28;20095;-46
2023/10/29 10:48:05;;;;;;;5.90;1.60;;;;;;;18.67;53.58;99375.81;5041558;28;20050;-47
2023/10/29 10:50:34;;;;;;;7.82;1.75;;;;;;;18.67;53.38;99375.81;5041421;28;20045;-46
2023/10/29 10:53:01;;;;;;;8.52;1.85;;;;;;;18.68;54.01;99383.66;5042788;28;20057;-47
2023/10/29 10:55:29;;;;;;;7.25;1.70;;;;;;;18.69;53.97;99414.88;5043205;28;20083;-44
2023/10/29 10:58:17;;;;;;;9.50;2.03;;;;;;;18.71;53.81;99445.03;5040852;28;20128;-45
2023/10/29 11:00:44;;;;;;;6.10;1.80;;;;;;;18.72;53.70;99457.44;5038377;28;20333;-45
2023/10/29 11:03:11;;;;;;;9.98;2.13;;;;;;;18.73;53.92;99463.63;5044077;28;20099;-44
2023/10/29 11:05:58;;;;;;;9.50;1.50;;;;;;;18.72;53.33;99470.03;5045736;28;20611;-46
2023/10/29 11:08:25;;;;;;;7.57;1.50;;;;;;;18.70;53.29;99447.94;5044094;28;20048;-45
2023/10/29 11:10:54;;;;;;;11.15;1.98;;;;;;;18.68;53.28;99433.81;5043122;28;20067;-45
2023/10/29 11:13:21;;;;;;;7.53;1.67;;;;;;;18.67;53.40;99414.22;5041569;28;20457;-44
2023/10/29 11:15:49;;;;;;;8.02;1.40;;;;;;;18.66;53.32;99407.19;5042471;28;20060;-46
2023/10/29 11:18:35;;;;;;;8.30;1.58;;;;;;;18.63;53.11;99423.66;5050068;28;20053;-45
2023/10/29 11:21:03;;;;;;;3.92;1.65;;;;;;;18.63;53.48;99418.31;5047489;28;20054;-45
2023/10/29 11:23:32;;;;;;;7.55;2.05;;;;;;;18.62;53.24;99427.38;5044321;28;20052;-46
2023/10/29 11:26:22;;;;;;;7.63;1.65;;;;;;;18.57;53.46;99408.31;5037807;28;20050;-46
2023/10/29 11:28:53;;;;;;;8.10;1.52;;;;;;;18.57;53.56;99411.00;5042029;28;20077;-47
2023/10/29 11:31:21;;;;;;;4.07;1.85;;;;;;;18.56;53.62;99404.00;5042127;28;20057;-47
2023/10/29 11:33:54;;;;;;;6.72;1.88;;;;;;;18.55;53.81;99391.59;5044524;28;20119;-47
2023/10/29 11:36:35;;;;;;;8.52;1.45;;;;;;;18.53;53.30;99382.06;5045993;28;20045;-43